sensor_id;sensor_type;location;lat;lon;timestamp;P1;durP1;ratioP1;P2;durP2;ratioP2
75139;SDS011;63714;55.812;37.658;2024-02-04T00:00:43;9.70;;;4.35;;
75139;SDS011;63714;55.812;37.658;2024-02-04T00:03:09;8.48;;;4.25;;
75139;SDS011;63714;55.812;37.658;2024-02-04T00:05:35;8.30;;;4.53;;
75139;SDS011;63714;55.812;37.658;2024-02-04T00:08:01;8.65;;;4.35;;
75139;SDS011;63714;55.812;37.658;2024-02-04T00:10:27;7.85;;;4.03;;
75139;SDS011;63714;55.812;37.658;2024-02-04T00:12:53;9.65;;;4.50;;
75139;SDS011;63714;55.812;37.658;2024-02-04T00:15:19;8.70;;;3.85;;
75139;SDS011;63714;55.812;37.658;2024-02-04T00:17:45;7.57;;;3.75;;
75139;SDS011;63714;55.812;37.658;2024-02-04T00:20:11;6.75;;;3.90;;
75139;SDS011;63714;55.812;37.658;2024-02-04T00:22:37;8.52;;;3.72;;
75139;SDS011;63714;55.812;37.658;2024-02-04T00:25:02;6.13;;;3.47;;
75139;SDS011;63714;55.812;37.658;2024-02-04T00:27:31;5.70;;;3.63;;
75139;SDS011;63714;55.812;37.658;2024-02-04T00:29:58;9.23;;;4.10;;
75139;SDS011;63714;55.812;37.658;2024-02-04T00:32:24;6.43;;;3.72;;
75139;SDS011;63714;55.812;37.658;2024-02-04T00:34:51;7.53;;;3.00;;
75139;SDS011;63714;55.812;37.658;2024-02-04T00:37:17;6.18;;;3.33;;
75139;SDS011;63714;55.812;37.658;2024-02-04T00:39:42;7.88;;;4.13;;
75139;SDS011;63714;55.812;37.658;2024-02-04T00:42:08;7.90;;;3.97;;
75139;SDS011;63714;55.812;37.658;2024-02-04T00:44:34;7.82;;;3.80;;
75139;SDS011;63714;55.812;37.658;2024-02-04T00:46:59;6.90;;;4.40;;
75139;SDS011;63714;55.812;37.658;2024-02-04T00:49:25;7.88;;;3.88;;
75139;SDS011;63714;55.812;37.658;2024-02-04T00:51:52;8.40;;;4.57;;
75139;SDS011;63714;55.812;37.658;2024-02-04T00:54:18;9.30;;;4.63;;
75139;SDS011;63714;55.812;37.658;2024-02-04T00:56:43;7.40;;;3.92;;
75139;SDS011;63714;55.812;37.658;2024-02-04T00:59:09;7.47;;;3.92;;
75139;SDS011;63714;55.812;37.658;2024-02-04T01:01:35;9.48;;;4.43;;
75139;SDS011;63714;55.812;37.658;2024-02-04T01:04:00;10.70;;;4.07;;
75139;SDS011;63714;55.812;37.658;2024-02-04T01:06:26;11.32;;;4.00;;
75139;SDS011;63714;55.812;37.658;2024-02-04T01:08:53;6.82;;;3.20;;
75139;SDS011;63714;55.812;37.658;2024-02-04T01:11:19;9.07;;;3.70;;
75139;SDS011;63714;55.812;37.658;2024-02-04T01:13:44;8.75;;;3.80;;
75139;SDS011;63714;55.812;37.658;2024-02-04T01:16:10;10.05;;;4.10;;
75139;SDS011;63714;55.812;37.658;2024-02-04T01:18:36;9.02;;;4.13;;
75139;SDS011;63714;55.812;37.658;2024-02-04T01:21:01;8.60;;;3.67;;
75139;SDS011;63714;55.812;37.658;2024-02-04T01:23:27;8.85;;;3.92;;
75139;SDS011;63714;55.812;37.658;2024-02-04T01:25:53;12.30;;;4.85;;
75139;SDS011;63714;55.812;37.658;2024-02-04T01:28:18;12.98;;;4.25;;
75139;SDS011;63714;55.812;37.658;2024-02-04T01:30:44;15.48;;;5.13;;
75139;SDS011;63714;55.812;37.658;2024-02-04T01:33:10;16.90;;;6.03;;
75139;SDS011;63714;55.812;37.658;2024-02-04T01:35:35;14.20;;;5.57;;
75139;SDS011;63714;55.812;37.658;2024-02-04T01:38:01;11.93;;;5.13;;
75139;SDS011;63714;55.812;37.658;2024-02-04T01:40:27;12.85;;;4.97;;
75139;SDS011;63714;55.812;37.658;2024-02-04T01:42:53;12.27;;;4.50;;
75139;SDS011;63714;55.812;37.658;2024-02-04T01:45:19;12.05;;;5.45;;
75139;SDS011;63714;55.812;37.658;2024-02-04T01:47:45;12.15;;;4.97;;
75139;SDS011;63714;55.812;37.658;2024-02-04T01:50:10;10.50;;;4.60;;
75139;SDS011;63714;55.812;37.658;2024-02-04T01:52:37;12.90;;;4.53;;
75139;SDS011;63714;55.812;37.658;2024-02-04T01:55:05;12.30;;;4.10;;
75139;SDS011;63714;55.812;37.658;2024-02-04T01:57:31;6.63;;;3.67;;
75139;SDS011;63714;55.812;37.658;2024-02-04T02:02:25;6.18;;;2.45;;
75139;SDS011;63714;55.812;37.658;2024-02-04T02:04:51;5.47;;;2.60;;
75139;SDS011;63714;55.812;37.658;2024-02-04T02:07:17;5.85;;;2.25;;
75139;SDS011;63714;55.812;37.658;2024-02-04T02:09:46;5.57;;;2.60;;
75139;SDS011;63714;55.812;37.658;2024-02-04T02:12:25;5.20;;;2.25;;
75139;SDS011;63714;55.812;37.658;2024-02-04T02:15:03;3.63;;;1.77;;
75139;SDS011;63714;55.812;37.658;2024-02-04T02:21:26;5.38;;;2.10;;
75139;SDS011;63714;55.812;37.658;2024-02-04T02:23:22;5.10;;;2.45;;
75139;SDS011;63714;55.812;37.658;2024-02-04T02:25:59;4.00;;;1.90;;
75139;SDS011;63714;55.812;37.658;2024-02-04T02:28:25;3.22;;;2.00;;
75139;SDS011;63714;55.812;37.658;2024-02-04T02:30:51;4.80;;;2.50;;
75139;SDS011;63714;55.812;37.658;2024-02-04T02:33:17;4.03;;;1.92;;
75139;SDS011;63714;55.812;37.658;2024-02-04T02:35:43;3.40;;;1.90;;
75139;SDS011;63714;55.812;37.658;2024-02-04T02:38:23;3.97;;;2.40;;
75139;SDS011;63714;55.812;37.658;2024-02-04T02:40:54;4.00;;;2.10;;
75139;SDS011;63714;55.812;37.658;2024-02-04T02:43:23;4.00;;;2.05;;
75139;SDS011;63714;55.812;37.658;2024-02-04T02:45:51;2.95;;;1.75;;
75139;SDS011;63714;55.812;37.658;2024-02-04T02:48:17;3.05;;;1.73;;
75139;SDS011;63714;55.812;37.658;2024-02-04T02:50:43;3.17;;;1.65;;
75139;SDS011;63714;55.812;37.658;2024-02-04T02:53:09;3.45;;;1.88;;
75139;SDS011;63714;55.812;37.658;2024-02-04T02:55:35;2.85;;;1.50;;
75139;SDS011;63714;55.812;37.658;2024-02-04T02:58:00;2.35;;;1.33;;
75139;SDS011;63714;55.812;37.658;2024-02-04T03:00:26;3.00;;;1.67;;
75139;SDS011;63714;55.812;37.658;2024-02-04T03:02:52;3.28;;;1.38;;
75139;SDS011;63714;55.812;37.658;2024-02-04T03:05:17;1.90;;;1.33;;
75139;SDS011;63714;55.812;37.658;2024-02-04T03:07:43;1.85;;;1.02;;
75139;SDS011;63714;55.812;37.658;2024-02-04T03:10:09;2.38;;;1.00;;
75139;SDS011;63714;55.812;37.658;2024-02-04T03:12:35;2.35;;;1.08;;
75139;SDS011;63714;55.812;37.658;2024-02-04T03:15:01;1.67;;;0.70;;
75139;SDS011;63714;55.812;37.658;2024-02-04T03:17:27;3.38;;;0.70;;
75139;SDS011;63714;55.812;37.658;2024-02-04T03:19:53;1.45;;;1.10;;
75139;SDS011;63714;55.812;37.658;2024-02-04T03:22:21;1.10;;;0.75;;
75139;SDS011;63714;55.812;37.658;2024-02-04T03:24:47;1.77;;;0.88;;
75139;SDS011;63714;55.812;37.658;2024-02-04T03:27:13;1.27;;;0.57;;
75139;SDS011;63714;55.812;37.658;2024-02-04T03:29:39;1.70;;;0.75;;
75139;SDS011;63714;55.812;37.658;2024-02-04T03:32:05;1.38;;;0.60;;
75139;SDS011;63714;55.812;37.658;2024-02-04T03:34:30;0.68;;;0.40;;
75139;SDS011;63714;55.812;37.658;2024-02-04T03:36:56;1.55;;;0.80;;
75139;SDS011;63714;55.812;37.658;2024-02-04T03:39:22;1.40;;;0.60;;
75139;SDS011;63714;55.812;37.658;2024-02-04T03:41:48;0.68;;;0.30;;
75139;SDS011;63714;55.812;37.658;2024-02-04T03:44:13;0.88;;;0.52;;
75139;SDS011;63714;55.812;37.658;2024-02-04T03:46:39;0.65;;;0.50;;
75139;SDS011;63714;55.812;37.658;2024-02-04T03:49:06;0.63;;;0.52;;
75139;SDS011;63714;55.812;37.658;2024-02-04T03:51:32;0.80;;;0.40;;
75139;SDS011;63714;55.812;37.658;2024-02-04T03:53:58;0.80;;;0.40;;
75139;SDS011;63714;55.812;37.658;2024-02-04T03:56:25;0.90;;;0.43;;
75139;SDS011;63714;55.812;37.658;2024-02-04T03:58:50;0.80;;;0.40;;
75139;SDS011;63714;55.812;37.658;2024-02-04T04:01:16;1.20;;;0.57;;
75139;SDS011;63714;55.812;37.658;2024-02-04T04:03:42;1.20;;;0.60;;
75139;SDS011;63714;55.812;37.658;2024-02-04T04:06:09;1.10;;;0.60;;
75139;SDS011;63714;55.812;37.658;2024-02-04T04:08:35;3.17;;;0.75;;
75139;SDS011;63714;55.812;37.658;2024-02-04T04:11:01;1.73;;;0.45;;
75139;SDS011;63714;55.812;37.658;2024-02-04T04:13:27;0.73;;;0.40;;
75139;SDS011;63714;55.812;37.658;2024-02-04T04:15:53;0.95;;;0.55;;
75139;SDS011;63714;55.812;37.658;2024-02-04T04:18:19;1.67;;;0.40;;
75139;SDS011;63714;55.812;37.658;2024-02-04T04:20:44;0.93;;;0.55;;
75139;SDS011;63714;55.812;37.658;2024-02-04T04:23:10;1.20;;;0.80;;
75139;SDS011;63714;55.812;37.658;2024-02-04T04:25:37;0.65;;;0.25;;
75139;SDS011;63714;55.812;37.658;2024-02-04T04:28:03;0.63;;;0.40;;
75139;SDS011;63714;55.812;37.658;2024-02-04T04:30:29;0.88;;;0.40;;
75139;SDS011;63714;55.812;37.658;2024-02-04T04:32:54;0.35;;;0.22;;
75139;SDS011;63714;55.812;37.658;2024-02-04T04:35:21;0.75;;;0.35;;
75139;SDS011;63714;55.812;37.658;2024-02-04T04:37:47;0.45;;;0.30;;
75139;SDS011;63714;55.812;37.658;2024-02-04T04:40:13;0.60;;;0.32;;
75139;SDS011;63714;55.812;37.658;2024-02-04T04:42:38;0.80;;;0.50;;
75139;SDS011;63714;55.812;37.658;2024-02-04T04:45:04;0.55;;;0.40;;
75139;SDS011;63714;55.812;37.658;2024-02-04T04:47:30;0.95;;;0.40;;
75139;SDS011;63714;55.812;37.658;2024-02-04T04:49:56;1.80;;;0.47;;
75139;SDS011;63714;55.812;37.658;2024-02-04T04:52:21;0.85;;;0.40;;
75139;SDS011;63714;55.812;37.658;2024-02-04T04:54:47;1.88;;;0.50;;
75139;SDS011;63714;55.812;37.658;2024-02-04T04:57:13;0.68;;;0.47;;
75139;SDS011;63714;55.812;37.658;2024-02-04T04:59:39;0.88;;;0.32;;
75139;SDS011;63714;55.812;37.658;2024-02-04T05:02:05;1.27;;;0.40;;
75139;SDS011;63714;55.812;37.658;2024-02-04T05:04:30;1.02;;;0.40;;
75139;SDS011;63714;55.812;37.658;2024-02-04T05:06:56;0.47;;;0.28;;
75139;SDS011;63714;55.812;37.658;2024-02-04T05:09:23;0.40;;;0.30;;
75139;SDS011;63714;55.812;37.658;2024-02-04T05:11:48;0.68;;;0.30;;
75139;SDS011;63714;55.812;37.658;2024-02-04T05:14:14;1.23;;;0.25;;
75139;SDS011;63714;55.812;37.658;2024-02-04T05:16:39;0.88;;;0.35;;
75139;SDS011;63714;55.812;37.658;2024-02-04T05:19:05;1.52;;;0.55;;
75139;SDS011;63714;55.812;37.658;2024-02-04T05:21:31;0.88;;;0.35;;
75139;SDS011;63714;55.812;37.658;2024-02-04T05:23:56;0.35;;;0.22;;
75139;SDS011;63714;55.812;37.658;2024-02-04T05:26:22;0.65;;;0.30;;
75139;SDS011;63714;55.812;37.658;2024-02-04T05:28:48;0.50;;;0.17;;
75139;SDS011;63714;55.812;37.658;2024-02-04T05:31:13;1.27;;;0.50;;
75139;SDS011;63714;55.812;37.658;2024-02-04T05:33:39;0.90;;;0.47;;
75139;SDS011;63714;55.812;37.658;2024-02-04T05:36:04;0.75;;;0.40;;
75139;SDS011;63714;55.812;37.658;2024-02-04T05:38:30;0.40;;;0.25;;
75139;SDS011;63714;55.812;37.658;2024-02-04T05:40:56;1.30;;;0.50;;
75139;SDS011;63714;55.812;37.658;2024-02-04T05:43:24;0.70;;;0.43;;
75139;SDS011;63714;55.812;37.658;2024-02-04T05:45:50;0.80;;;0.40;;
75139;SDS011;63714;55.812;37.658;2024-02-04T05:48:16;1.52;;;0.40;;
75139;SDS011;63714;55.812;37.658;2024-02-04T05:50:41;2.17;;;0.45;;
75139;SDS011;63714;55.812;37.658;2024-02-04T05:53:07;1.23;;;0.50;;
75139;SDS011;63714;55.812;37.658;2024-02-04T05:55:32;0.73;;;0.30;;
75139;SDS011;63714;55.812;37.658;2024-02-04T05:57:58;0.95;;;0.50;;
75139;SDS011;63714;55.812;37.658;2024-02-04T06:00:24;1.98;;;0.40;;
75139;SDS011;63714;55.812;37.658;2024-02-04T06:02:49;1.25;;;0.52;;
75139;SDS011;63714;55.812;37.658;2024-02-04T06:05:15;1.00;;;0.43;;
75139;SDS011;63714;55.812;37.658;2024-02-04T06:07:43;0.57;;;0.30;;
75139;SDS011;63714;55.812;37.658;2024-02-04T06:10:09;2.30;;;0.80;;
75139;SDS011;63714;55.812;37.658;2024-02-04T06:12:35;2.10;;;0.63;;
75139;SDS011;63714;55.812;37.658;2024-02-04T06:15:01;0.98;;;0.60;;
75139;SDS011;63714;55.812;37.658;2024-02-04T06:17:29;2.08;;;0.35;;
75139;SDS011;63714;55.812;37.658;2024-02-04T06:19:55;1.55;;;0.70;;
75139;SDS011;63714;55.812;37.658;2024-02-04T06:22:22;1.63;;;0.50;;
75139;SDS011;63714;55.812;37.658;2024-02-04T06:24:48;2.42;;;0.60;;
75139;SDS011;63714;55.812;37.658;2024-02-04T06:27:15;1.63;;;0.70;;
75139;SDS011;63714;55.812;37.658;2024-02-04T06:29:40;1.85;;;0.47;;
75139;SDS011;63714;55.812;37.658;2024-02-04T06:32:06;1.23;;;0.40;;
75139;SDS011;63714;55.812;37.658;2024-02-04T06:34:32;2.08;;;0.70;;
75139;SDS011;63714;55.812;37.658;2024-02-04T06:36:57;2.88;;;0.50;;
75139;SDS011;63714;55.812;37.658;2024-02-04T06:39:23;2.03;;;0.38;;
75139;SDS011;63714;55.812;37.658;2024-02-04T06:41:49;1.63;;;0.32;;
75139;SDS011;63714;55.812;37.658;2024-02-04T06:44:14;4.00;;;0.43;;
75139;SDS011;63714;55.812;37.658;2024-02-04T06:46:40;2.78;;;0.63;;
75139;SDS011;63714;55.812;37.658;2024-02-04T06:49:06;1.42;;;0.30;;
75139;SDS011;63714;55.812;37.658;2024-02-04T06:51:32;0.77;;;0.32;;
75139;SDS011;63714;55.812;37.658;2024-02-04T06:53:57;0.22;;;0.13;;
75139;SDS011;63714;55.812;37.658;2024-02-04T06:56:23;2.00;;;0.22;;
75139;SDS011;63714;55.812;37.658;2024-02-04T06:58:49;0.75;;;0.20;;
75139;SDS011;63714;55.812;37.658;2024-02-04T07:01:14;1.90;;;0.10;;
75139;SDS011;63714;55.812;37.658;2024-02-04T07:03:40;0.63;;;0.20;;
75139;SDS011;63714;55.812;37.658;2024-02-04T07:06:06;0.32;;;0.13;;
75139;SDS011;63714;55.812;37.658;2024-02-04T07:08:32;0.40;;;0.10;;
75139;SDS011;63714;55.812;37.658;2024-02-04T07:10:58;0.70;;;0.30;;
75139;SDS011;63714;55.812;37.658;2024-02-04T07:13:24;0.65;;;0.15;;
75139;SDS011;63714;55.812;37.658;2024-02-04T07:15:49;0.90;;;0.30;;
75139;SDS011;63714;55.812;37.658;2024-02-04T07:18:15;0.98;;;0.22;;
75139;SDS011;63714;55.812;37.658;2024-02-04T07:20:42;2.58;;;0.30;;
75139;SDS011;63714;55.812;37.658;2024-02-04T07:23:08;0.60;;;0.22;;
75139;SDS011;63714;55.812;37.658;2024-02-04T07:25:34;1.27;;;0.35;;
75139;SDS011;63714;55.812;37.658;2024-02-04T07:28:00;0.52;;;0.20;;
75139;SDS011;63714;55.812;37.658;2024-02-04T07:30:26;0.28;;;0.15;;
75139;SDS011;63714;55.812;37.658;2024-02-04T07:32:52;0.50;;;0.22;;
75139;SDS011;63714;55.812;37.658;2024-02-04T07:35:17;1.90;;;0.40;;
75139;SDS011;63714;55.812;37.658;2024-02-04T07:37:43;0.20;;;0.10;;
75139;SDS011;63714;55.812;37.658;2024-02-04T07:40:09;1.30;;;0.28;;
75139;SDS011;63714;55.812;37.658;2024-02-04T07:42:35;0.47;;;0.13;;
75139;SDS011;63714;55.812;37.658;2024-02-04T07:45:01;0.68;;;0.20;;
75139;SDS011;63714;55.812;37.658;2024-02-04T07:47:34;0.70;;;0.30;;
75139;SDS011;63714;55.812;37.658;2024-02-04T07:50:00;0.25;;;0.20;;
75139;SDS011;63714;55.812;37.658;2024-02-04T07:52:25;1.58;;;0.35;;
75139;SDS011;63714;55.812;37.658;2024-02-04T07:54:51;0.60;;;0.25;;
75139;SDS011;63714;55.812;37.658;2024-02-04T07:57:17;0.25;;;0.10;;
75139;SDS011;63714;55.812;37.658;2024-02-04T07:59:42;1.48;;;0.32;;
75139;SDS011;63714;55.812;37.658;2024-02-04T08:02:08;2.65;;;0.47;;
75139;SDS011;63714;55.812;37.658;2024-02-04T08:04:34;0.80;;;0.10;;
75139;SDS011;63714;55.812;37.658;2024-02-04T08:07:00;0.10;;;0.10;;
75139;SDS011;63714;55.812;37.658;2024-02-04T08:09:25;2.05;;;0.20;;
75139;SDS011;63714;55.812;37.658;2024-02-04T08:11:51;1.27;;;0.30;;
75139;SDS011;63714;55.812;37.658;2024-02-04T08:14:17;0.85;;;0.30;;
75139;SDS011;63714;55.812;37.658;2024-02-04T08:16:44;0.93;;;0.25;;
75139;SDS011;63714;55.812;37.658;2024-02-04T08:19:11;2.47;;;0.30;;
75139;SDS011;63714;55.812;37.658;2024-02-04T08:21:37;0.50;;;0.28;;
75139;SDS011;63714;55.812;37.658;2024-02-04T08:24:03;2.35;;;0.52;;
75139;SDS011;63714;55.812;37.658;2024-02-04T08:26:29;0.50;;;0.10;;
75139;SDS011;63714;55.812;37.658;2024-02-04T08:28:55;3.00;;;0.30;;
75139;SDS011;63714;55.812;37.658;2024-02-04T08:31:20;0.80;;;0.50;;
75139;SDS011;63714;55.812;37.658;2024-02-04T08:33:46;1.10;;;0.20;;
75139;SDS011;63714;55.812;37.658;2024-02-04T08:36:12;0.40;;;0.15;;
75139;SDS011;63714;55.812;37.658;2024-02-04T08:38:38;0.75;;;0.15;;
75139;SDS011;63714;55.812;37.658;2024-02-04T08:41:03;0.77;;;0.30;;
75139;SDS011;63714;55.812;37.658;2024-02-04T08:43:29;1.27;;;0.30;;
75139;SDS011;63714;55.812;37.658;2024-02-04T08:45:55;0.17;;;0.10;;
75139;SDS011;63714;55.812;37.658;2024-02-04T08:48:20;2.08;;;0.30;;
75139;SDS011;63714;55.812;37.658;2024-02-04T08:50:46;1.13;;;0.50;;
75139;SDS011;63714;55.812;37.658;2024-02-04T08:53:12;1.17;;;0.30;;
75139;SDS011;63714;55.812;37.658;2024-02-04T08:55:38;3.28;;;0.60;;
75139;SDS011;63714;55.812;37.658;2024-02-04T08:58:03;0.85;;;0.30;;
75139;SDS011;63714;55.812;37.658;2024-02-04T09:00:29;2.15;;;0.60;;
75139;SDS011;63714;55.812;37.658;2024-02-04T09:02:54;3.25;;;0.52;;
75139;SDS011;63714;55.812;37.658;2024-02-04T09:05:21;1.77;;;0.30;;
75139;SDS011;63714;55.812;37.658;2024-02-04T09:07:48;1.90;;;0.68;;
75139;SDS011;63714;55.812;37.658;2024-02-04T09:10:16;2.13;;;0.70;;
75139;SDS011;63714;55.812;37.658;2024-02-04T09:12:42;3.80;;;0.55;;
75139;SDS011;63714;55.812;37.658;2024-02-04T09:15:07;1.20;;;0.40;;
75139;SDS011;63714;55.812;37.658;2024-02-04T09:17:33;2.25;;;0.65;;
75139;SDS011;63714;55.812;37.658;2024-02-04T09:19:59;4.25;;;0.70;;
75139;SDS011;63714;55.812;37.658;2024-02-04T09:22:25;4.28;;;1.23;;
75139;SDS011;63714;55.812;37.658;2024-02-04T09:24:51;2.75;;;1.08;;
75139;SDS011;63714;55.812;37.658;2024-02-04T09:27:23;2.92;;;0.63;;
75139;SDS011;63714;55.812;37.658;2024-02-04T09:29:48;3.67;;;1.08;;
75139;SDS011;63714;55.812;37.658;2024-02-04T09:32:14;2.05;;;0.80;;
75139;SDS011;63714;55.812;37.658;2024-02-04T09:34:40;3.72;;;0.57;;
75139;SDS011;63714;55.812;37.658;2024-02-04T09:37:06;2.78;;;0.73;;
75139;SDS011;63714;55.812;37.658;2024-02-04T09:39:32;4.50;;;1.10;;
75139;SDS011;63714;55.812;37.658;2024-02-04T09:41:57;1.58;;;0.50;;
75139;SDS011;63714;55.812;37.658;2024-02-04T09:44:24;3.55;;;0.73;;
75139;SDS011;63714;55.812;37.658;2024-02-04T09:46:50;4.47;;;0.63;;
75139;SDS011;63714;55.812;37.658;2024-02-04T09:49:17;5.50;;;1.13;;
75139;SDS011;63714;55.812;37.658;2024-02-04T09:51:43;4.70;;;0.90;;
75139;SDS011;63714;55.812;37.658;2024-02-04T09:54:10;1.55;;;0.57;;
75139;SDS011;63714;55.812;37.658;2024-02-04T09:56:37;1.90;;;1.23;;
75139;SDS011;63714;55.812;37.658;2024-02-04T09:59:04;2.25;;;0.93;;
75139;SDS011;63714;55.812;37.658;2024-02-04T10:01:29;2.22;;;0.70;;
75139;SDS011;63714;55.812;37.658;2024-02-04T10:03:57;2.30;;;0.80;;
75139;SDS011;63714;55.812;37.658;2024-02-04T10:06:23;5.07;;;0.82;;
75139;SDS011;63714;55.812;37.658;2024-02-04T10:08:49;4.32;;;1.05;;
75139;SDS011;63714;55.812;37.658;2024-02-04T10:11:15;3.72;;;0.60;;
75139;SDS011;63714;55.812;37.658;2024-02-04T10:13:44;2.85;;;0.73;;
75139;SDS011;63714;55.812;37.658;2024-02-04T10:16:14;3.63;;;1.17;;
75139;SDS011;63714;55.812;37.658;2024-02-04T10:18:41;5.82;;;0.77;;
75139;SDS011;63714;55.812;37.658;2024-02-04T10:21:20;3.28;;;0.77;;
75139;SDS011;63714;55.812;37.658;2024-02-04T10:23:49;4.47;;;1.05;;
75139;SDS011;63714;55.812;37.658;2024-02-04T10:26:16;5.78;;;0.85;;
75139;SDS011;63714;55.812;37.658;2024-02-04T10:28:45;6.20;;;0.90;;
75139;SDS011;63714;55.812;37.658;2024-02-04T10:31:12;2.67;;;0.90;;
75139;SDS011;63714;55.812;37.658;2024-02-04T10:33:38;5.20;;;0.98;;
75139;SDS011;63714;55.812;37.658;2024-02-04T10:36:05;5.13;;;0.82;;
75139;SDS011;63714;55.812;37.658;2024-02-04T10:38:31;4.25;;;1.23;;
75139;SDS011;63714;55.812;37.658;2024-02-04T10:41:01;3.63;;;1.20;;
75139;SDS011;63714;55.812;37.658;2024-02-04T10:43:33;7.90;;;0.82;;
75139;SDS011;63714;55.812;37.658;2024-02-04T10:46:09;5.15;;;0.77;;
75139;SDS011;63714;55.812;37.658;2024-02-04T10:48:45;4.38;;;0.80;;
75139;SDS011;63714;55.812;37.658;2024-02-04T10:51:17;4.90;;;1.30;;
75139;SDS011;63714;55.812;37.658;2024-02-04T10:53:45;3.30;;;0.73;;
75139;SDS011;63714;55.812;37.658;2024-02-04T10:56:18;5.30;;;0.95;;
75139;SDS011;63714;55.812;37.658;2024-02-04T10:58:47;2.08;;;0.68;;
75139;SDS011;63714;55.812;37.658;2024-02-04T11:01:14;3.88;;;0.68;;
75139;SDS011;63714;55.812;37.658;2024-02-04T11:03:40;6.00;;;1.23;;
75139;SDS011;63714;55.812;37.658;2024-02-04T11:06:07;4.50;;;1.17;;
75139;SDS011;63714;55.812;37.658;2024-02-04T11:08:34;4.93;;;1.40;;
75139;SDS011;63714;55.812;37.658;2024-02-04T11:11:00;7.25;;;1.30;;
75139;SDS011;63714;55.812;37.658;2024-02-04T11:13:25;4.90;;;0.80;;
75139;SDS011;63714;55.812;37.658;2024-02-04T11:15:55;4.13;;;0.65;;
75139;SDS011;63714;55.812;37.658;2024-02-04T11:26:57;7.82;;;1.00;;
75139;SDS011;63714;55.812;37.658;2024-02-04T11:29:23;2.45;;;1.00;;
75139;SDS011;63714;55.812;37.658;2024-02-04T11:31:51;3.28;;;0.98;;
75139;SDS011;63714;55.812;37.658;2024-02-04T11:34:16;1.98;;;0.65;;
75139;SDS011;63714;55.812;37.658;2024-02-04T11:36:42;5.28;;;0.80;;
75139;SDS011;63714;55.812;37.658;2024-02-04T11:39:12;2.22;;;0.55;;
75139;SDS011;63714;55.812;37.658;2024-02-04T11:41:44;6.40;;;1.10;;
75139;SDS011;63714;55.812;37.658;2024-02-04T11:44:12;5.63;;;0.95;;
75139;SDS011;63714;55.812;37.658;2024-02-04T11:46:37;4.03;;;1.13;;
75139;SDS011;63714;55.812;37.658;2024-02-04T11:49:03;4.22;;;1.42;;
75139;SDS011;63714;55.812;37.658;2024-02-04T11:51:29;4.35;;;0.70;;
75139;SDS011;63714;55.812;37.658;2024-02-04T11:53:55;4.18;;;0.80;;
75139;SDS011;63714;55.812;37.658;2024-02-04T11:56:21;2.58;;;0.70;;
75139;SDS011;63714;55.812;37.658;2024-02-04T11:58:49;7.85;;;0.82;;
75139;SDS011;63714;55.812;37.658;2024-02-04T12:01:14;2.58;;;0.77;;
75139;SDS011;63714;55.812;37.658;2024-02-04T12:03:41;3.53;;;0.60;;
75139;SDS011;63714;55.812;37.658;2024-02-04T12:06:06;2.17;;;0.60;;
75139;SDS011;63714;55.812;37.658;2024-02-04T12:08:34;3.30;;;0.65;;
75139;SDS011;63714;55.812;37.658;2024-02-04T12:11:00;1.88;;;0.60;;
75139;SDS011;63714;55.812;37.658;2024-02-04T12:13:28;2.03;;;0.60;;
75139;SDS011;63714;55.812;37.658;2024-02-04T12:15:54;1.45;;;0.93;;
75139;SDS011;63714;55.812;37.658;2024-02-04T12:18:20;0.60;;;0.32;;
75139;SDS011;63714;55.812;37.658;2024-02-04T12:20:46;4.80;;;0.85;;
75139;SDS011;63714;55.812;37.658;2024-02-04T12:23:16;4.57;;;0.65;;
75139;SDS011;63714;55.812;37.658;2024-02-04T12:25:42;1.65;;;0.60;;
75139;SDS011;63714;55.812;37.658;2024-02-04T12:28:08;2.30;;;0.45;;
75139;SDS011;63714;55.812;37.658;2024-02-04T12:30:34;1.73;;;0.30;;
75139;SDS011;63714;55.812;37.658;2024-02-04T12:33:03;2.55;;;0.60;;
75139;SDS011;63714;55.812;37.658;2024-02-04T12:35:30;3.30;;;0.50;;
75139;SDS011;63714;55.812;37.658;2024-02-04T12:37:56;2.67;;;0.50;;
75139;SDS011;63714;55.812;37.658;2024-02-04T12:40:23;3.13;;;1.05;;
75139;SDS011;63714;55.812;37.658;2024-02-04T12:45:27;3.40;;;0.60;;
75139;SDS011;63714;55.812;37.658;2024-02-04T12:47:54;4.30;;;0.50;;
75139;SDS011;63714;55.812;37.658;2024-02-04T12:50:20;3.45;;;0.50;;
75139;SDS011;63714;55.812;37.658;2024-02-04T12:52:47;4.63;;;1.02;;
75139;SDS011;63714;55.812;37.658;2024-02-04T12:55:24;4.57;;;0.98;;
75139;SDS011;63714;55.812;37.658;2024-02-04T12:58:01;2.20;;;0.50;;
75139;SDS011;63714;55.812;37.658;2024-02-04T13:00:31;4.57;;;0.60;;
75139;SDS011;63714;55.812;37.658;2024-02-04T13:02:58;2.05;;;0.60;;
75139;SDS011;63714;55.812;37.658;2024-02-04T13:05:24;4.38;;;0.82;;
75139;SDS011;63714;55.812;37.658;2024-02-04T13:07:54;2.30;;;1.00;;
75139;SDS011;63714;55.812;37.658;2024-02-04T13:10:26;7.00;;;0.88;;
75139;SDS011;63714;55.812;37.658;2024-02-04T13:17:54;4.78;;;0.65;;
75139;SDS011;63714;55.812;37.658;2024-02-04T13:20:20;2.45;;;0.77;;
75139;SDS011;63714;55.812;37.658;2024-02-04T13:22:46;5.18;;;0.90;;
75139;SDS011;63714;55.812;37.658;2024-02-04T13:25:11;1.60;;;0.65;;
75139;SDS011;63714;55.812;37.658;2024-02-04T13:27:37;3.33;;;0.50;;
75139;SDS011;63714;55.812;37.658;2024-02-04T13:30:03;2.60;;;0.80;;
75139;SDS011;63714;55.812;37.658;2024-02-04T13:32:29;1.65;;;0.50;;
75139;SDS011;63714;55.812;37.658;2024-02-04T13:34:55;2.42;;;0.40;;
75139;SDS011;63714;55.812;37.658;2024-02-04T13:37:20;3.80;;;0.90;;
75139;SDS011;63714;55.812;37.658;2024-02-04T13:39:46;5.47;;;0.77;;
75139;SDS011;63714;55.812;37.658;2024-02-04T13:42:12;2.00;;;0.73;;
75139;SDS011;63714;55.812;37.658;2024-02-04T13:44:38;2.35;;;0.50;;
75139;SDS011;63714;55.812;37.658;2024-02-04T13:47:03;3.97;;;0.80;;
75139;SDS011;63714;55.812;37.658;2024-02-04T13:49:29;3.67;;;0.70;;
75139;SDS011;63714;55.812;37.658;2024-02-04T13:51:55;1.88;;;0.63;;
75139;SDS011;63714;55.812;37.658;2024-02-04T13:54:20;4.78;;;0.90;;
75139;SDS011;63714;55.812;37.658;2024-02-04T13:56:46;5.95;;;0.50;;
75139;SDS011;63714;55.812;37.658;2024-02-04T13:59:11;4.15;;;0.98;;
75139;SDS011;63714;55.812;37.658;2024-02-04T14:01:37;6.65;;;1.10;;
75139;SDS011;63714;55.812;37.658;2024-02-04T14:04:03;3.60;;;0.75;;
75139;SDS011;63714;55.812;37.658;2024-02-04T14:06:29;6.40;;;0.98;;
75139;SDS011;63714;55.812;37.658;2024-02-04T14:08:54;5.22;;;1.17;;
75139;SDS011;63714;55.812;37.658;2024-02-04T14:11:20;2.58;;;0.63;;
75139;SDS011;63714;55.812;37.658;2024-02-04T14:13:46;1.60;;;0.70;;
75139;SDS011;63714;55.812;37.658;2024-02-04T14:16:11;3.72;;;0.88;;
75139;SDS011;63714;55.812;37.658;2024-02-04T14:18:37;4.93;;;0.80;;
75139;SDS011;63714;55.812;37.658;2024-02-04T14:21:05;1.90;;;0.52;;
75139;SDS011;63714;55.812;37.658;2024-02-04T14:23:32;4.97;;;0.70;;
75139;SDS011;63714;55.812;37.658;2024-02-04T14:25:57;3.97;;;0.60;;
75139;SDS011;63714;55.812;37.658;2024-02-04T14:28:23;3.97;;;1.00;;
75139;SDS011;63714;55.812;37.658;2024-02-04T14:30:49;3.58;;;0.80;;
75139;SDS011;63714;55.812;37.658;2024-02-04T14:33:14;5.03;;;0.85;;
75139;SDS011;63714;55.812;37.658;2024-02-04T14:35:42;5.75;;;1.13;;
75139;SDS011;63714;55.812;37.658;2024-02-04T14:38:07;6.47;;;1.00;;
75139;SDS011;63714;55.812;37.658;2024-02-04T14:40:33;5.13;;;0.80;;
75139;SDS011;63714;55.812;37.658;2024-02-04T14:42:59;5.90;;;1.17;;
75139;SDS011;63714;55.812;37.658;2024-02-04T14:45:26;5.88;;;0.93;;
75139;SDS011;63714;55.812;37.658;2024-02-04T14:47:51;2.88;;;0.82;;
75139;SDS011;63714;55.812;37.658;2024-02-04T14:50:17;2.72;;;0.60;;